statement low priority SPECIAL AIR QUALITY STATEMENT

Thunder radar more information blitzortung!


Rain radar more information rain snow radar


Equipment we use:

Davis VP2

Weather Display

BareMetal


Weather Underground History page Text

Daily Summary for August 19, 2018 Units:  Metric    English   Both
« Previous Day
Next Day »
Daily Weekly Monthly Yearly Custom
  Current: High: Low: Average:
Temperature: -6.4 °C -17.8 °C -10.2 °C -8.7 °C
Dew Point: -8.4 °C -17.8 °C -10.6 °C -9.5 °C
Humidity: 80 % Humidity % 80 % 90 %
Wind Speed: 11.9 km/h 0 km/h 0 km/h 6.3 km/h
Wind Gust: 10.1 km/h 0 km/h - -
Wind:West - - WNW
Pressure: 34459.3 hPa 0 hPa 34459.3 hPa -
Precipitation: 0 mm      
Historical Graphs
 
 
Tabular Data for August 19, 2018
Time Temperature Dew Point Pressure Wind Wind Speed Wind Gust Humidity Rainfall Rate (Hourly)
-17.8 °C -17.8 °C 0 hPa Calm     Humidity % 0 mm
00:04 -9 °C -9.8 °C 34523.7 hPa Calm     91 % 0 mm
00:09 -9.1 °C -9.9 °C 34523.7 hPa Calm     91 % 0 mm
00:14 -9.1 °C -9.9 °C 34523.7 hPa Calm     91 % 0 mm
00:19 -9.1 °C -9.9 °C 34520.3 hPa Calm     91 % 0 mm
00:24 -9.2 °C -9.9 °C 34523.7 hPa Calm     91 % 0 mm
00:29 -9.2 °C -10 °C 34523.7 hPa Calm     91 % 0 mm
00:34 -9.2 °C -9.9 °C 34523.7 hPa Calm     92 % 0 mm
00:39 -9.2 °C -9.9 °C 34523.7 hPa Calm     92 % 0 mm
00:44 -9.3 °C -9.9 °C 34523.7 hPa Calm     92 % 0 mm
00:49 -9.3 °C -9.9 °C 34523.7 hPa Calm     92 % 0 mm
00:54 -9.3 °C -10 °C 34523.7 hPa Calm     92 % 0 mm
00:59 -9.3 °C -10 °C 34523.7 hPa Calm     92 % 0 mm
01:04 -9.3 °C -10 °C 34523.7 hPa Calm     92 % 0 mm
01:09 -9.3 °C -10 °C 34520.3 hPa Calm     92 % 0 mm
01:14 -9.3 °C -10 °C 34523.7 hPa Calm     92 % 0 mm
01:19 -9.3 °C -9.9 °C 34520.3 hPa Calm     93 % 0 mm
01:24 -9.3 °C -9.9 °C 34520.3 hPa Calm     93 % 0 mm
01:29 -9.3 °C -9.9 °C 34520.3 hPa Calm     93 % 0 mm
01:34 -9.3 °C -10 °C 34520.3 hPa Calm     92 % 0 mm
01:39 -9.3 °C -9.9 °C 34520.3 hPa Calm     93 % 0 mm
01:44 -9.3 °C -10.1 °C 34520.3 hPa Calm     92 % 0 mm
01:49 -9.3 °C -9.9 °C 34520.3 hPa Calm     93 % 0 mm
01:54 -9.3 °C -9.9 °C 34516.9 hPa Calm     93 % 0 mm
01:59 -9.3 °C -9.9 °C 34516.9 hPa Calm     93 % 0 mm
02:04 -9.4 °C -10 °C 34516.9 hPa Calm     93 % 0 mm
02:09 -9.4 °C -10.1 °C 34516.9 hPa Calm     93 % 0 mm
02:14 -9.4 °C -10.1 °C 34516.9 hPa Calm     93 % 0 mm
02:19 -9.4 °C -10 °C 34513.5 hPa Calm     93 % 0 mm
02:24 -9.4 °C -10.1 °C 34513.5 hPa Calm     93 % 0 mm
02:29 -9.4 °C -10 °C 34513.5 hPa Calm     93 % 0 mm
02:34 -9.3 °C -9.9 °C 34513.5 hPa Calm     93 % 0 mm
02:39 -9.4 °C -10.1 °C 34513.5 hPa Calm     93 % 0 mm
02:44 -9.4 °C -10.1 °C 34510.1 hPa Calm     93 % 0 mm
02:49 -9.5 °C -10.2 °C 34510.1 hPa Calm     92 % 0 mm
02:54 -9.6 °C -10.2 °C 34510.1 hPa Calm     92 % 0 mm
02:59 -9.6 °C -10.2 °C 34513.5 hPa Calm     93 % 0 mm
03:04 -9.6 °C -10.2 °C 34513.5 hPa Calm     93 % 0 mm
03:09 -9.6 °C -10.2 °C 34510.1 hPa Calm     93 % 0 mm
03:14 -9.6 °C -10.2 °C 34513.5 hPa Calm     93 % 0 mm
03:19 -9.6 °C -10.2 °C 34513.5 hPa Calm     93 % 0 mm
03:24 -9.6 °C -10.2 °C 34513.5 hPa Calm     93 % 0 mm
03:29 -9.6 °C -10.2 °C 34513.5 hPa Calm     93 % 0 mm
03:34 -9.6 °C -10.1 °C 34513.5 hPa Calm     94 % 0 mm
03:39 -9.6 °C -10.1 °C 34510.1 hPa Calm     94 % 0 mm
03:44 -9.5 °C -10 °C 34510.1 hPa Calm     94 % 0 mm
03:49 -9.3 °C -9.9 °C 34510.1 hPa Calm     94 % 0 mm
03:54 -9.2 °C -9.7 °C 34510.1 hPa Calm     95 % 0 mm
03:59 -9.3 °C -9.8 °C 34510.1 hPa Calm     94 % 0 mm
04:04 -9.3 °C -9.8 °C 34506.7 hPa Calm     94 % 0 mm
04:09 -9.3 °C -9.9 °C 34510.1 hPa Calm     94 % 0 mm
04:14 -9.3 °C -9.9 °C 34506.7 hPa Calm     94 % 0 mm
04:19 -9.3 °C -9.9 °C 34506.7 hPa Calm     94 % 0 mm
04:24 -9.4 °C -9.9 °C 34506.7 hPa Calm     94 % 0 mm
04:29 -9.4 °C -9.9 °C 34506.7 hPa Calm     94 % 0 mm
04:34 -9.4 °C -9.9 °C 34506.7 hPa Calm     94 % 0 mm
04:39 -9.6 °C -10.1 °C 34506.7 hPa Calm     94 % 0 mm
04:44 -9.6 °C -10.1 °C 34506.7 hPa Calm     94 % 0 mm
04:49 -9.6 °C -10 °C 34506.7 hPa Calm     95 % 0 mm
04:54 -9.6 °C -10 °C 34506.7 hPa Calm     95 % 0 mm
04:59 -9.6 °C -10.1 °C 34503.3 hPa Calm     94 % 0 mm
05:04 -9.6 °C -10.1 °C 34506.7 hPa Calm     95 % 0 mm
05:09 -9.7 °C -10.2 °C 34503.3 hPa Calm     94 % 0 mm
05:14 -9.8 °C -10.3 °C 34503.3 hPa Calm     94 % 0 mm
05:19 -9.8 °C -10.2 °C 34503.3 hPa Calm     95 % 0 mm
05:24 -9.8 °C -10.2 °C 34503.3 hPa Calm     95 % 0 mm
05:29 -9.8 °C -10.2 °C 34503.3 hPa Calm     95 % 0 mm
05:34 -9.8 °C -10.2 °C 34500 hPa Calm     95 % 0 mm
05:40 -9.8 °C -10.2 °C 34503.3 hPa Calm     95 % 0 mm
05:44 -9.8 °C -10.3 °C 34503.3 hPa Calm     95 % 0 mm
05:49 -9.9 °C -10.3 °C 34506.7 hPa Calm     95 % 0 mm
05:54 -9.9 °C -10.4 °C 34506.7 hPa Calm     95 % 0 mm
05:59 -10.1 °C -10.4 °C 34506.7 hPa Calm     95 % 0 mm
06:04 -10.1 °C -10.5 °C 34510.1 hPa Calm     95 % 0 mm
06:09 -10.1 °C -10.5 °C 34510.1 hPa Calm     95 % 0 mm
06:14 -10.1 °C -10.5 °C 34510.1 hPa Calm     95 % 0 mm
06:19 -10.1 °C -10.5 °C 34506.7 hPa Calm     95 % 0 mm
06:24 -10.1 °C -10.5 °C 34506.7 hPa Calm     95 % 0 mm
06:29 -10.1 °C -10.5 °C 34510.1 hPa Calm     95 % 0 mm
06:34 -10.2 °C -10.6 °C 34506.7 hPa Calm     95 % 0 mm
06:39 -10.2 °C -10.6 °C 34510.1 hPa Calm     95 % 0 mm
06:44 -10.2 °C -10.6 °C 34510.1 hPa Calm     95 % 0 mm
06:49 -10.2 °C -10.6 °C 34513.5 hPa Calm     95 % 0 mm
06:54 -10.2 °C -10.6 °C 34516.9 hPa Calm     95 % 0 mm
06:59 -10.2 °C -10.6 °C 34516.9 hPa Calm     96 % 0 mm
07:04 -10.2 °C -10.5 °C 34516.9 hPa Calm     96 % 0 mm
07:09 -10.1 °C -10.4 °C 34516.9 hPa Calm     96 % 0 mm
07:14 -10.1 °C -10.4 °C 34520.3 hPa Calm     96 % 0 mm
07:19 -10.1 °C -10.4 °C 34520.3 hPa Calm     96 % 0 mm
07:24 -10.1 °C -10.4 °C 34520.3 hPa Calm     96 % 0 mm
07:29 -10.1 °C -10.4 °C 34520.3 hPa Calm     96 % 0 mm
07:34 -10.1 °C -10.4 °C 34520.3 hPa Calm     96 % 0 mm
07:39 -10 °C -10.3 °C 34520.3 hPa Calm     96 % 0 mm
07:44 -9.9 °C -10.3 °C 34520.3 hPa Calm     96 % 0 mm
07:49 -9.8 °C -10.1 °C 34520.3 hPa Calm     97 % 0 mm
07:54 -9.7 °C -9.9 °C 34520.3 hPa Calm     97 % 0 mm
07:59 -9.6 °C -9.9 °C 34520.3 hPa Calm   0.3 km/h 97 % 0 mm
08:04 -9.5 °C -9.7 °C 34520.3 hPa Calm     97 % 0 mm
08:09 -9.3 °C -9.6 °C 34520.3 hPa Calm     97 % 0 mm
08:14 -9.1 °C -9.4 °C 34520.3 hPa West 9 km/h 2.9 km/h 97 % 0 mm
08:19 -8.9 °C -9.2 °C 34520.3 hPa West 7.7 km/h 0.5 km/h 97 % 0 mm
08:24 -8.7 °C -9 °C 34520.3 hPa WNW 10.3 km/h 5.6 km/h 97 % 0 mm
08:29 -8.6 °C -8.8 °C 34523.7 hPa WNW 9 km/h 5 km/h 97 % 0 mm
08:34 -8.5 °C -8.8 °C 34523.7 hPa WNW 9 km/h 8 km/h 97 % 0 mm
08:39 -8.4 °C -8.8 °C 34516.9 hPa WNW 11.9 km/h 10.3 km/h 96 % 0 mm
08:44 -8.3 °C -8.7 °C 34520.3 hPa WNW 9 km/h 0.5 km/h 96 % 0 mm
08:49 -8.3 °C -8.7 °C 34520.3 hPa WNW 9 km/h 2.9 km/h 96 % 0 mm
08:54 -8.2 °C -8.7 °C 34520.3 hPa WNW 11.9 km/h 9.8 km/h 95 % 0 mm
08:59 -8.2 °C -8.7 °C 34520.3 hPa WNW 17.9 km/h 7.2 km/h 94 % 0 mm
09:05 -8.1 °C -8.7 °C 34516.9 hPa WNW 12.9 km/h 5 km/h 94 % 0 mm
09:09 -8.1 °C -8.7 °C 34516.9 hPa WNW 15 km/h 6.3 km/h 93 % 0 mm
09:14 -8 °C -8.7 °C 34513.5 hPa NW 11.9 km/h 3.4 km/h 93 % 0 mm
09:19 -7.9 °C -8.7 °C 34516.9 hPa West 20.9 km/h 11.1 km/h 92 % 0 mm
09:24 -7.9 °C -8.7 °C 34516.9 hPa WNW 15 km/h 7.2 km/h 91 % 0 mm
09:29 -7.8 °C -8.7 °C 34516.9 hPa WNW 9 km/h 6.3 km/h 91 % 0 mm
09:34 -7.8 °C -8.6 °C 34516.9 hPa WNW 9 km/h 2.6 km/h 91 % 0 mm
09:39 -7.7 °C -8.7 °C 34513.5 hPa WNW 11.9 km/h 7.2 km/h 90 % 0 mm
09:44 -7.7 °C -8.6 °C 34516.9 hPa WNW 9 km/h 2.9 km/h 90 % 0 mm
09:49 -7.6 °C -8.6 °C 34516.9 hPa WNW 17.9 km/h 13.2 km/h 90 % 0 mm
09:54 -7.6 °C -8.6 °C 34516.9 hPa WNW 15.6 km/h 9.3 km/h 89 % 0 mm
09:59 -7.6 °C -8.6 °C 34516.9 hPa West 12.9 km/h 8.5 km/h 89 % 0 mm
10:04 -7.4 °C -8.5 °C 34516.9 hPa WNW 20.9 km/h 8.2 km/h 89 % 0 mm
10:09 -7.4 °C -8.4 °C 34516.9 hPa WNW 9 km/h 1 km/h 89 % 0 mm
10:14 -7.3 °C -8.5 °C 34516.9 hPa WNW 15.6 km/h 12.7 km/h 88 % 0 mm
10:19 -7.4 °C -8.5 °C 34516.9 hPa NNW 15 km/h 11.4 km/h 88 % 0 mm
10:24 -7.3 °C -8.5 °C 34520.3 hPa WNW 20.9 km/h 9.7 km/h 88 % 0 mm
10:29 -7.3 °C -8.6 °C 34516.9 hPa WNW 17.9 km/h 9 km/h 87 % 0 mm
10:34 -7.3 °C -8.4 °C 34513.5 hPa WNW 7.7 km/h 1 km/h 88 % 0 mm
10:39 -7.3 °C -8.5 °C 34513.5 hPa WSW 15 km/h 9.3 km/h 87 % 0 mm
10:44 -7.2 °C -8.4 °C 34516.9 hPa WNW 9 km/h 7.6 km/h 87 % 0 mm
10:49 -7.2 °C -8.6 °C 34513.5 hPa NW 20.9 km/h 12.7 km/h 86 % 0 mm
10:54 -7.2 °C -8.6 °C 34513.5 hPa SW 23.8 km/h 8.9 km/h 86 % 0 mm
10:59 -7.2 °C -8.5 °C 34513.5 hPa West 9 km/h 6.3 km/h 86 % 0 mm
11:04 -7.1 °C -8.4 °C 34513.5 hPa WSW 11.9 km/h 11.1 km/h 86 % 0 mm
11:09 -7.1 °C -8.4 °C 34513.5 hPa West 17.9 km/h 7.2 km/h 86 % 0 mm
11:14 -7.1 °C -8.4 °C 34513.5 hPa WNW 26.9 km/h 7.7 km/h 86 % 0 mm
11:19 -7.1 °C -8.5 °C 34513.5 hPa WNW 15 km/h 12.9 km/h 85 % 0 mm
11:24 -7.1 °C -8.5 °C 34513.5 hPa WNW 15 km/h 9.7 km/h 85 % 0 mm
11:29 -7.1 °C -8.6 °C 34513.5 hPa WNW 17.9 km/h 17.4 km/h 84 % 0 mm
11:34 -7.1 °C -8.6 °C 34513.5 hPa NW 17.9 km/h 10.3 km/h 84 % 0 mm
11:39 -7.1 °C -8.6 °C 34510.1 hPa SW 17.9 km/h 6.9 km/h 84 % 0 mm
11:45 -7 °C -8.6 °C 34510.1 hPa WNW 17.9 km/h 10.1 km/h 83 % 0 mm
11:49 -7 °C -8.6 °C 34510.1 hPa West 15.6 km/h 10.1 km/h 83 % 0 mm
11:54 -6.9 °C -8.6 °C 34503.3 hPa WNW 15.6 km/h 8.9 km/h 83 % 0 mm
11:59 -6.9 °C -8.6 °C 34506.7 hPa WNW 17.9 km/h 9.3 km/h 83 % 0 mm
12:04 -6.9 °C -8.5 °C 34503.3 hPa SW 12.9 km/h 8.2 km/h 83 % 0 mm
12:09 -6.8 °C -8.4 °C 34500 hPa West 12.9 km/h 6.4 km/h 83 % 0 mm
12:14 -6.7 °C -8.4 °C 34500 hPa WSW 17.9 km/h 8.9 km/h 82 % 0 mm
12:19 -6.7 °C -8.4 °C 34493.2 hPa West 10.3 km/h 5.6 km/h 82 % 0 mm
12:24 -6.7 °C -8.4 °C 34493.2 hPa WNW 15.6 km/h 8.2 km/h 82 % 0 mm
12:29 -6.7 °C -8.4 °C 34489.8 hPa NNW 20.9 km/h 10.9 km/h 82 % 0 mm
12:34 -6.7 °C -8.4 °C 34489.8 hPa WNW 20.9 km/h 10.3 km/h 82 % 0 mm
12:39 -6.7 °C -8.4 °C 34489.8 hPa West 20.9 km/h 12.2 km/h 82 % 0 mm
12:44 -6.7 °C -8.4 °C 34489.8 hPa WNW 9 km/h 10.1 km/h 82 % 0 mm
12:49 -6.6 °C -8.4 °C 34486.4 hPa NW 17.9 km/h 8.9 km/h 82 % 0 mm
12:54 -6.6 °C -8.4 °C 34483 hPa WSW 11.9 km/h 8.9 km/h 82 % 0 mm
12:59 -6.6 °C -8.4 °C 34486.4 hPa WNW 11.9 km/h 9 km/h 82 % 0 mm
13:04 -6.7 °C -8.4 °C 34486.4 hPa WSW 15.6 km/h 13.5 km/h 82 % 0 mm
13:09 -6.7 °C -8.4 °C 34479.6 hPa WNW 23.8 km/h 8.9 km/h 82 % 0 mm
13:14 -6.7 °C -8.4 °C 34479.6 hPa WSW 15 km/h 8.5 km/h 82 % 0 mm
13:19 -6.6 °C -8.4 °C 34479.6 hPa WNW 15.6 km/h 14.8 km/h 82 % 0 mm
13:24 -6.6 °C -8.4 °C 34479.6 hPa WNW 11.9 km/h 7.6 km/h 82 % 0 mm
13:29 -6.6 °C -8.3 °C 34476.3 hPa WSW 17.9 km/h 8 km/h 82 % 0 mm
13:34 -6.6 °C -8.4 °C 34472.9 hPa NW 15 km/h 6.3 km/h 82 % 0 mm
13:39 -6.6 °C -8.3 °C 34472.9 hPa WNW 23.8 km/h 12.2 km/h 82 % 0 mm
13:44 -6.6 °C -8.4 °C 34469.5 hPa WNW 15 km/h 11.9 km/h 81 % 0 mm
13:49 -6.6 °C -8.3 °C 34466.1 hPa West 9 km/h 8.9 km/h 82 % 0 mm
13:54 -6.5 °C -8.4 °C 34466.1 hPa WNW 15 km/h 12.4 km/h 81 % 0 mm
13:59 -6.5 °C -8.4 °C 34462.7 hPa WNW 17.9 km/h 9.7 km/h 81 % 0 mm
14:04 -6.5 °C -8.4 °C 34459.3 hPa WSW 11.9 km/h 9.7 km/h 81 % 0 mm
14:09 -6.4 °C -8.4 °C 34459.3 hPa West 11.9 km/h 10.1 km/h 80 % 0 mm
Ladner Weather
Compliments of Weather Underground - 2 mb

Script developed by  Jim McMurry - jmcmurry@mwt.net Adapted for the template by  Wim van der Kuil - Leuven-Template.eu